North Cleveland, Texas
Current Conditions -  °F | °C
As of 6:53 PM on Tuesday 27 Jan 2015 (Local Time) from KCXO Reporting Station
Clear Clear  
Wind Chill: 56°   Ceiling: Unl
Heat Index: 56°   Visibility: 10mi
Dew Point: 48°   Wind: 3mph
Humidity: 75%   Direction: 340°NNW
Pressure: 30.13"   Gusts: NA
Location:  30.2945°N, 94.9711°W
Report Text: KCXO 280053Z 34003KT 10SM CLR 13/09 A3013 RMK AO2 SLP201 T01330089
Loading
Personal Weather Stations






























Interactive Weather Map New forecast layout! Learn more

10-Day Weather Forecast

Advertisements
Track Severe Weather on mobile